Time;durP1;ratioP1;P1;durP2;ratioP2;P2;SDS_P1;SDS_P2;PMS_P1;PMS_P2;Temp;Humidity;BMP_temperature;BMP_pressure;BME280_temperature;BME280_humidity;BME280_pressure;Samples;Min_cycle;Max_cycle;Signal;HPM_P1;HPM_P2
2023/04/24 00:01:23;;;;;;;3.83;1.00;;;;;;;;;;5019698;28;20043;-67
2023/04/24 00:03:48;;;;;;;1.67;1.58;;;;;;;;;;5019933;28;20041;-67
2023/04/24 00:06:16;;;;;;;2.08;1.27;;;;;;;;;;5018848;28;20136;-68
2023/04/24 00:08:42;;;;;;;1.20;1.10;;;;;;;;;;5020485;28;20510;-67
2023/04/24 00:11:09;;;;;;;5.63;1.30;;;;;;;;;;5018922;28;20057;-67
2023/04/24 00:13:35;;;;;;;2.80;1.20;;;;;;;;;;5019118;28;20045;-67
2023/04/24 00:16:00;;;;;;;1.33;1.23;;;;;;;;;;5020024;28;20134;-68
2023/04/24 00:18:26;;;;;;;2.60;1.02;;;;;;;;;;5019971;28;20053;-69
2023/04/24 00:20:51;;;;;;;1.40;1.10;;;;;;;;;;5019523;28;20065;-67
2023/04/24 00:23:17;;;;;;;1.55;1.38;;;;;;;;;;5019741;28;20037;-67
2023/04/24 00:25:42;;;;;;;1.20;1.10;;;;;;;;;;5019640;28;20418;-67
2023/04/24 00:28:08;;;;;;;2.58;0.90;;;;;;;;;;5019822;28;20056;-68
2023/04/24 00:30:33;;;;;;;3.00;0.90;;;;;;;;;;5020039;28;20045;-68
2023/04/24 00:32:59;;;;;;;1.10;1.00;;;;;;;;;;5018863;28;20106;-68
2023/04/24 00:35:25;;;;;;;2.13;1.17;;;;;;;;;;5019224;28;20052;-68
2023/04/24 00:37:50;;;;;;;1.48;1.33;;;;;;;;;;5019794;28;20050;-69
2023/04/24 00:40:15;;;;;;;2.22;1.10;;;;;;;;;;5018731;28;20037;-68
2023/04/24 00:42:43;;;;;;;2.58;1.10;;;;;;;;;;5017155;28;20041;-70
2023/04/24 00:45:09;;;;;;;1.63;1.05;;;;;;;;;;5019571;28;20107;-69
2023/04/24 00:47:35;;;;;;;6.07;1.10;;;;;;;;;;5017602;28;20585;-69
2023/04/24 00:50:04;;;;;;;0.70;0.70;;;;;;;;;;5019884;28;20044;-70
2023/04/24 00:52:31;;;;;;;2.53;0.98;;;;;;;;;;5019568;28;20096;-70
2023/04/24 00:54:57;;;;;;;1.75;1.00;;;;;;;;;;5018981;28;20048;-68
2023/04/24 00:57:23;;;;;;;3.63;1.00;;;;;;;;;;5022062;28;20045;-68
2023/04/24 00:59:49;;;;;;;3.30;0.98;;;;;;;;;;5023713;28;20048;-70
2023/04/24 01:02:15;;;;;;;1.13;0.75;;;;;;;;;;5021548;28;20398;-70
2023/04/24 01:04:41;;;;;;;0.80;0.80;;;;;;;;;;5022240;28;20486;-70
2023/04/24 01:07:10;;;;;;;2.08;1.20;;;;;;;;;;5021942;28;20153;-68
2023/04/24 01:09:37;;;;;;;1.30;0.80;;;;;;;;;;5021146;28;20037;-70
2023/04/24 01:12:03;;;;;;;0.70;0.70;;;;;;;;;;5023079;28;20045;-68
2023/04/24 01:14:30;;;;;;;1.15;0.80;;;;;;;;;;5023186;28;20425;-70
2023/04/24 01:16:57;;;;;;;1.42;0.90;;;;;;;;;;5020770;28;20140;-68
2023/04/24 01:19:22;;;;;;;2.47;0.80;;;;;;;;;;5020362;28;20045;-70
2023/04/24 01:21:51;;;;;;;0.52;0.52;;;;;;;;;;5020076;28;20052;-68
2023/04/24 01:24:19;;;;;;;0.85;0.75;;;;;;;;;;5016204;28;20041;-70
2023/04/24 01:26:45;;;;;;;0.90;0.70;;;;;;;;;;5019507;28;20498;-68
2023/04/24 01:29:11;;;;;;;0.80;0.70;;;;;;;;;;5019031;28;20402;-68
2023/04/24 01:31:38;;;;;;;1.02;0.70;;;;;;;;;;5021718;28;20045;-69
2023/04/24 01:34:03;;;;;;;1.27;0.52;;;;;;;;;;5021268;28;20072;-70
2023/04/24 01:36:31;;;;;;;0.63;0.60;;;;;;;;;;5022856;28;20622;-68
2023/04/24 01:38:56;;;;;;;0.60;0.60;;;;;;;;;;5022819;28;20111;-67
2023/04/24 01:41:25;;;;;;;0.77;0.63;;;;;;;;;;5020089;28;20049;-67
2023/04/24 01:43:51;;;;;;;0.70;0.57;;;;;;;;;;5021238;28;20041;-67
2023/04/24 01:46:19;;;;;;;1.20;0.60;;;;;;;;;;5022615;28;20136;-68
2023/04/24 01:48:45;;;;;;;1.65;0.60;;;;;;;;;;5021026;28;20171;-68
2023/04/24 01:51:10;;;;;;;1.00;0.63;;;;;;;;;;5020607;28;20044;-68
2023/04/24 01:53:36;;;;;;;0.93;0.60;;;;;;;;;;5020090;28;20045;-71
2023/04/24 01:56:02;;;;;;;0.52;0.52;;;;;;;;;;5021321;28;20037;-69
2023/04/24 01:58:28;;;;;;;0.75;0.60;;;;;;;;;;5020755;28;20048;-69
2023/04/24 02:00:57;;;;;;;0.40;0.40;;;;;;;;;;5022624;28;20042;-69
2023/04/24 02:03:23;;;;;;;1.05;0.63;;;;;;;;;;5020546;28;20045;-69
2023/04/24 02:05:48;;;;;;;1.15;0.77;;;;;;;;;;5022022;28;20045;-70
2023/04/24 02:08:13;;;;;;;0.50;0.50;;;;;;;;;;5004035;28;20563;-68
2023/04/24 02:10:39;;;;;;;3.28;0.50;;;;;;;;;;5022051;28;20052;-68
2023/04/24 02:13:04;;;;;;;1.40;0.52;;;;;;;;;;5020689;28;20137;-68
2023/04/24 02:15:30;;;;;;;1.10;0.50;;;;;;;;;;5018425;28;20510;-67
2023/04/24 02:17:55;;;;;;;0.40;0.40;;;;;;;;;;5020665;28;20100;-68
2023/04/24 02:20:21;;;;;;;0.50;0.50;;;;;;;;;;5004043;28;20070;-68
2023/04/24 02:22:46;;;;;;;0.40;0.40;;;;;;;;;;5020556;28;20123;-67
2023/04/24 02:25:12;;;;;;;0.88;0.45;;;;;;;;;;5019697;28;20517;-69
2023/04/24 02:27:37;;;;;;;0.52;0.52;;;;;;;;;;5021252;28;20049;-67
2023/04/24 02:30:05;;;;;;;0.50;0.40;;;;;;;;;;5021990;28;20041;-68
2023/04/24 02:32:31;;;;;;;0.40;0.40;;;;;;;;;;5020003;28;20498;-69
2023/04/24 02:34:56;;;;;;;0.45;0.40;;;;;;;;;;5022248;28;20099;-66
2023/04/24 02:37:22;;;;;;;0.85;0.40;;;;;;;;;;5020224;28;20044;-67
2023/04/24 02:39:47;;;;;;;0.40;0.40;;;;;;;;;;5021572;28;20033;-67
2023/04/24 02:42:12;;;;;;;0.90;0.68;;;;;;;;;;5019992;28;20135;-68
2023/04/24 02:44:38;;;;;;;1.05;0.40;;;;;;;;;;5020123;28;20059;-68
2023/04/24 02:47:03;;;;;;;0.50;0.50;;;;;;;;;;5020218;28;20057;-67
2023/04/24 02:49:29;;;;;;;0.50;0.50;;;;;;;;;;5019733;28;20044;-68
2023/04/24 02:51:55;;;;;;;1.15;0.60;;;;;;;;;;5021494;28;20038;-68
2023/04/24 02:54:20;;;;;;;0.40;0.40;;;;;;;;;;5021263;28;20394;-68
2023/04/24 02:56:46;;;;;;;0.88;0.32;;;;;;;;;;5020927;28;20048;-69
2023/04/24 02:59:11;;;;;;;1.00;0.38;;;;;;;;;;5020705;28;20049;-68
2023/04/24 03:01:37;;;;;;;1.13;0.50;;;;;;;;;;5018583;28;20529;-69
2023/04/24 03:04:03;;;;;;;0.57;0.40;;;;;;;;;;5020081;28;20052;-69
2023/04/24 03:06:28;;;;;;;0.45;0.40;;;;;;;;;;5019999;28;20498;-69
2023/04/24 03:08:54;;;;;;;0.65;0.65;;;;;;;;;;5020074;28;20068;-69
2023/04/24 03:11:20;;;;;;;1.30;0.50;;;;;;;;;;5018996;28;20094;-69
2023/04/24 03:13:45;;;;;;;0.60;0.40;;;;;;;;;;5019239;28;20053;-68
2023/04/24 03:16:11;;;;;;;0.47;0.47;;;;;;;;;;5019523;28;20056;-67
2023/04/24 03:18:36;;;;;;;0.45;0.43;;;;;;;;;;5018698;28;20133;-68
2023/04/24 03:21:03;;;;;;;0.38;0.32;;;;;;;;;;5018771;28;20046;-69
2023/04/24 03:23:29;;;;;;;0.38;0.38;;;;;;;;;;5018812;28;20037;-69
2023/04/24 03:25:55;;;;;;;0.40;0.40;;;;;;;;;;5017224;28;20072;-69
2023/04/24 03:28:20;;;;;;;1.92;0.55;;;;;;;;;;5020460;28;20480;-70
2023/04/24 03:30:59;;;;;;;1.17;0.50;;;;;;;;;;5018065;28;20402;-68
2023/04/24 03:33:27;;;;;;;0.28;0.28;;;;;;;;;;5016388;28;20044;-69
2023/04/24 03:35:59;;;;;;;0.47;0.45;;;;;;;;;;5018764;28;20529;-69
2023/04/24 03:38:25;;;;;;;0.50;0.50;;;;;;;;;;5002403;28;20037;-69
2023/04/24 03:41:16;;;;;;;0.40;0.40;;;;;;;;;;5017466;28;20037;-69
2023/04/24 03:43:46;;;;;;;8.88;0.52;;;;;;;;;;5004400;28;20038;-72
2023/04/24 03:46:11;;;;;;;0.50;0.47;;;;;;;;;;5017869;28;20169;-69
2023/04/24 03:48:41;;;;;;;1.70;0.43;;;;;;;;;;5013236;28;20045;-70
2023/04/24 03:51:08;;;;;;;1.15;0.45;;;;;;;;;;5037682;28;20871;-72
2023/04/24 03:53:35;;;;;;;0.65;0.45;;;;;;;;;;5034920;28;20693;-72
2023/04/24 03:56:01;;;;;;;2.05;0.50;;;;;;;;;;5036472;28;20049;-71
2023/04/24 03:58:28;;;;;;;0.52;0.50;;;;;;;;;;5037356;28;20124;-71
2023/04/24 04:00:56;;;;;;;0.40;0.40;;;;;;;;;;5035955;28;20457;-71
2023/04/24 04:03:51;;;;;;;0.55;0.50;;;;;;;;;;5004479;28;20045;-72
2023/04/24 04:06:21;;;;;;;0.80;0.50;;;;;;;;;;5024538;28;20797;-73
2023/04/24 04:08:48;;;;;;;0.50;0.50;;;;;;;;;;5035236;28;20049;-71
2023/04/24 04:11:13;;;;;;;0.68;0.52;;;;;;;;;;5034687;28;20106;-71
2023/04/24 04:13:39;;;;;;;2.15;0.50;;;;;;;;;;5030124;28;20045;-70
2023/04/24 04:16:05;;;;;;;1.23;0.70;;;;;;;;;;5008932;28;20045;-71
2023/04/24 04:18:31;;;;;;;0.40;0.40;;;;;;;;;;5013356;28;20133;-71
2023/04/24 04:20:56;;;;;;;0.60;0.60;;;;;;;;;;5013052;28;20149;-71
2023/04/24 04:23:22;;;;;;;0.52;0.52;;;;;;;;;;5016833;28;20044;-70
2023/04/24 04:26:00;;;;;;;0.85;0.63;;;;;;;;;;5016632;28;20060;-73
2023/04/24 04:28:37;;;;;;;0.40;0.40;;;;;;;;;;5017138;28;20045;-70
2023/04/24 04:31:03;;;;;;;0.73;0.60;;;;;;;;;;5017807;28;20692;-72
2023/04/24 04:33:29;;;;;;;0.80;0.80;;;;;;;;;;5020293;28;20073;-71
2023/04/24 04:35:56;;;;;;;0.50;0.43;;;;;;;;;;5021733;28;20079;-73
2023/04/24 04:38:23;;;;;;;0.50;0.50;;;;;;;;;;5011667;28;20053;-73
2023/04/24 04:41:11;;;;;;;0.80;0.55;;;;;;;;;;5021395;28;20514;-72
2023/04/24 04:43:39;;;;;;;1.08;0.50;;;;;;;;;;5020053;28;20572;-71
2023/04/24 04:46:05;;;;;;;0.40;0.40;;;;;;;;;;5021168;28;20041;-71
2023/04/24 04:48:42;;;;;;;0.65;0.50;;;;;;;;;;5020618;28;20045;-72
2023/04/24 04:51:08;;;;;;;1.95;0.60;;;;;;;;;;5021243;28;20052;-71
2023/04/24 04:53:34;;;;;;;0.52;0.50;;;;;;;;;;5022281;28;20050;-72
2023/04/24 04:56:01;;;;;;;0.82;0.55;;;;;;;;;;5021297;28;20048;-72
2023/04/24 04:58:33;;;;;;;1.95;0.80;;;;;;;;;;5020617;28;20049;-71
2023/04/24 05:01:00;;;;;;;1.08;0.70;;;;;;;;;;5021592;28;20037;-74
2023/04/24 05:03:30;;;;;;;0.95;0.57;;;;;;;;;;5018691;28;20756;-72
2023/04/24 05:06:06;;;;;;;2.60;0.68;;;;;;;;;;5020221;28;20215;-72
2023/04/24 05:08:35;;;;;;;1.42;0.70;;;;;;;;;;5019067;28;20045;-73
2023/04/24 05:11:01;;;;;;;1.23;0.50;;;;;;;;;;5018641;28;20053;-74
2023/04/24 05:13:28;;;;;;;1.80;0.80;;;;;;;;;;5018557;28;20139;-74
2023/04/24 05:15:55;;;;;;;3.92;0.80;;;;;;;;;;5018120;28;20040;-72
2023/04/24 05:18:20;;;;;;;3.60;0.60;;;;;;;;;;5018185;28;20578;-73
2023/04/24 05:20:46;;;;;;;1.30;0.60;;;;;;;;;;5015906;28;20122;-71
2023/04/24 05:23:12;;;;;;;2.55;0.70;;;;;;;;;;5018378;28;20794;-71
2023/04/24 05:25:41;;;;;;;2.35;0.70;;;;;;;;;;5015912;28;20081;-72
2023/04/24 05:28:09;;;;;;;2.22;0.73;;;;;;;;;;5000958;28;20037;-73
2023/04/24 05:30:35;;;;;;;0.68;0.68;;;;;;;;;;5018458;28;20091;-71
2023/04/24 05:33:01;;;;;;;0.50;0.50;;;;;;;;;;5018777;28;20124;-72
2023/04/24 05:35:27;;;;;;;2.33;0.70;;;;;;;;;;5018909;28;20052;-72
2023/04/24 05:37:53;;;;;;;1.95;0.80;;;;;;;;;;5019482;28;20041;-72
2023/04/24 05:40:18;;;;;;;2.75;0.73;;;;;;;;;;5020467;28;20491;-72
2023/04/24 05:42:43;;;;;;;0.70;0.70;;;;;;;;;;5019725;28;20058;-71
2023/04/24 05:45:14;;;;;;;0.73;0.73;;;;;;;;;;5021972;28;21015;-72
2023/04/24 05:47:41;;;;;;;2.40;0.90;;;;;;;;;;5019337;28;20063;-71
2023/04/24 05:50:07;;;;;;;3.30;1.15;;;;;;;;;;5020941;28;20046;-74
2023/04/24 05:52:32;;;;;;;1.33;0.80;;;;;;;;;;5020308;28;20055;-70
2023/04/24 05:55:00;;;;;;;0.60;0.60;;;;;;;;;;5019332;28;20041;-71
2023/04/24 05:57:31;;;;;;;1.50;0.85;;;;;;;;;;5019279;28;20065;-71
2023/04/24 06:00:01;;;;;;;3.67;0.90;;;;;;;;;;5019830;28;20130;-73
2023/04/24 06:02:32;;;;;;;1.65;0.80;;;;;;;;;;5003402;28;20087;-71
2023/04/24 06:04:59;;;;;;;0.80;0.70;;;;;;;;;;5018090;28;20321;-74
2023/04/24 06:07:28;;;;;;;0.52;0.52;;;;;;;;;;5001630;28;20166;-71
2023/04/24 06:09:54;;;;;;;6.03;0.70;;;;;;;;;;5018648;28;20106;-71
2023/04/24 06:12:20;;;;;;;0.73;0.60;;;;;;;;;;5018290;28;20410;-74
2023/04/24 06:15:00;;;;;;;1.55;0.68;;;;;;;;;;5018146;28;20064;-72
2023/04/24 06:17:49;;;;;;;0.43;0.43;;;;;;;;;;5021780;28;20937;-71
2023/04/24 06:20:16;;;;;;;0.50;0.50;;;;;;;;;;5039298;28;20520;-73
2023/04/24 06:22:41;;;;;;;0.82;0.50;;;;;;;;;;5039867;28;20048;-73
2023/04/24 06:25:07;;;;;;;0.52;0.35;;;;;;;;;;5040042;28;20040;-71
2023/04/24 06:27:33;;;;;;;0.30;0.30;;;;;;;;;;5038175;28;20527;-73
2023/04/24 06:29:58;;;;;;;0.40;0.38;;;;;;;;;;5039425;28;20466;-73
2023/04/24 06:32:24;;;;;;;3.13;0.45;;;;;;;;;;5039449;28;20045;-74
2023/04/24 06:34:52;;;;;;;0.70;0.30;;;;;;;;;;5040765;28;20423;-73
2023/04/24 06:37:18;;;;;;;0.40;0.30;;;;;;;;;;5040431;28;20106;-73
2023/04/24 06:39:44;;;;;;;1.15;0.38;;;;;;;;;;5040063;28;20505;-73
2023/04/24 06:42:09;;;;;;;0.32;0.30;;;;;;;;;;5034070;28;20049;-74
2023/04/24 06:44:40;;;;;;;3.00;0.30;;;;;;;;;;5020622;28;20052;-76
2023/04/24 06:47:08;;;;;;;0.17;0.17;;;;;;;;;;5017306;28;20569;-76
2023/04/24 06:49:34;;;;;;;0.28;0.28;;;;;;;;;;5039263;28;20124;-76
2023/04/24 06:52:00;;;;;;;0.50;0.30;;;;;;;;;;5040252;28;20060;-76
2023/04/24 06:54:25;;;;;;;1.50;0.68;;;;;;;;;;5039479;28;20041;-76
2023/04/24 06:56:51;;;;;;;0.47;0.30;;;;;;;;;;5040554;28;20051;-73
2023/04/24 06:59:17;;;;;;;0.20;0.20;;;;;;;;;;5038673;28;20044;-74
2023/04/24 07:01:42;;;;;;;0.20;0.20;;;;;;;;;;5039568;28;20045;-74
2023/04/24 07:04:08;;;;;;;0.20;0.20;;;;;;;;;;5039158;28;20048;-74
2023/04/24 07:06:35;;;;;;;0.38;0.38;;;;;;;;;;5043028;28;20053;-73
2023/04/24 07:09:01;;;;;;;0.47;0.20;;;;;;;;;;5040865;28;21021;-73
2023/04/24 07:11:29;;;;;;;0.52;0.43;;;;;;;;;;5039933;28;20037;-73
2023/04/24 07:13:55;;;;;;;0.30;0.30;;;;;;;;;;5040068;28;20055;-74
2023/04/24 07:16:20;;;;;;;0.30;0.20;;;;;;;;;;5040786;28;20036;-74
2023/04/24 07:18:45;;;;;;;0.20;0.20;;;;;;;;;;5038365;28;20048;-73
2023/04/24 07:21:11;;;;;;;0.20;0.20;;;;;;;;;;5039771;28;20543;-72
2023/04/24 07:23:36;;;;;;;0.20;0.20;;;;;;;;;;5038841;28;20517;-72
2023/04/24 07:26:02;;;;;;;1.65;0.30;;;;;;;;;;5040195;28;20053;-72
2023/04/24 07:28:30;;;;;;;0.30;0.30;;;;;;;;;;5039879;28;20056;-73
2023/04/24 07:30:57;;;;;;;0.30;0.30;;;;;;;;;;5040420;28;20410;-73
2023/04/24 07:33:22;;;;;;;0.88;0.20;;;;;;;;;;5039218;28;20045;-72
2023/04/24 07:35:48;;;;;;;0.30;0.20;;;;;;;;;;5039566;28;20037;-72
2023/04/24 07:38:13;;;;;;;3.30;0.20;;;;;;;;;;5040527;28;20053;-73
2023/04/24 07:40:39;;;;;;;0.20;0.20;;;;;;;;;;5040248;28;20427;-73
2023/04/24 07:43:04;;;;;;;1.00;0.30;;;;;;;;;;5040805;28;20036;-74
2023/04/24 07:45:31;;;;;;;0.30;0.30;;;;;;;;;;5040134;28;21007;-73
2023/04/24 07:47:56;;;;;;;0.32;0.30;;;;;;;;;;5040857;28;20092;-73
2023/04/24 07:50:22;;;;;;;0.50;0.30;;;;;;;;;;5038834;28;20699;-72
2023/04/24 07:52:48;;;;;;;0.55;0.20;;;;;;;;;;5039955;28;20066;-75
2023/04/24 07:55:13;;;;;;;0.20;0.20;;;;;;;;;;5039099;28;20037;-72
2023/04/24 07:57:39;;;;;;;0.57;0.20;;;;;;;;;;5032820;28;20052;-75
2023/04/24 08:00:05;;;;;;;0.20;0.20;;;;;;;;;;5037266;28;20140;-72
2023/04/24 08:02:37;;;;;;;0.38;0.20;;;;;;;;;;5039269;28;20049;-73
2023/04/24 08:05:03;;;;;;;0.20;0.20;;;;;;;;;;5039374;28;20052;-72
2023/04/24 08:07:29;;;;;;;0.20;0.20;;;;;;;;;;5038313;28;20056;-73
2023/04/24 08:09:55;;;;;;;0.85;0.30;;;;;;;;;;5041502;28;20037;-72
2023/04/24 08:12:20;;;;;;;0.30;0.30;;;;;;;;;;5040602;28;20051;-72
2023/04/24 08:14:45;;;;;;;1.45;0.30;;;;;;;;;;5040960;28;20497;-73
2023/04/24 08:17:11;;;;;;;3.85;0.30;;;;;;;;;;5037398;28;20561;-73
2023/04/24 08:19:36;;;;;;;0.20;0.20;;;;;;;;;;5041558;28;20232;-73
2023/04/24 08:22:03;;;;;;;0.20;0.20;;;;;;;;;;5039950;28;20747;-73
2023/04/24 08:24:29;;;;;;;0.00;0.00;;;;;;;;;;5040404;28;20049;-73
2023/04/24 08:26:56;;;;;;;0.20;0.20;;;;;;;;;;5039322;28;20424;-73
2023/04/24 08:29:22;;;;;;;1.38;0.30;;;;;;;;;;5037564;28;20044;-77
2023/04/24 08:31:47;;;;;;;0.20;0.20;;;;;;;;;;5039911;28;20118;-73
2023/04/24 08:34:12;;;;;;;0.13;0.13;;;;;;;;;;5039951;28;20513;-74
2023/04/24 08:36:40;;;;;;;0.22;0.22;;;;;;;;;;5039914;28;20052;-74
2023/04/24 08:39:06;;;;;;;0.28;0.28;;;;;;;;;;5038443;28;20040;-73
2023/04/24 08:41:34;;;;;;;0.28;0.28;;;;;;;;;;5038866;28;20041;-72
2023/04/24 08:44:01;;;;;;;0.30;0.30;;;;;;;;;;5039247;28;20041;-72
2023/04/24 08:46:27;;;;;;;0.25;0.20;;;;;;;;;;5039268;28;20057;-72
2023/04/24 08:48:53;;;;;;;0.52;0.20;;;;;;;;;;5038612;28;20397;-72
2023/04/24 08:51:20;;;;;;;0.20;0.20;;;;;;;;;;5038508;28;20055;-74
2023/04/24 08:53:46;;;;;;;0.93;0.35;;;;;;;;;;5038157;28;20657;-73
2023/04/24 08:56:12;;;;;;;0.20;0.20;;;;;;;;;;5039187;28;20561;-73
2023/04/24 08:58:39;;;;;;;0.28;0.28;;;;;;;;;;5039358;28;20045;-73
2023/04/24 09:01:04;;;;;;;0.22;0.22;;;;;;;;;;5038188;28;20075;-74
2023/04/24 09:03:31;;;;;;;0.43;0.20;;;;;;;;;;5037300;28;20072;-73
2023/04/24 09:05:57;;;;;;;0.75;0.50;;;;;;;;;;5038054;28;20068;-73
2023/04/24 09:08:25;;;;;;;0.35;0.25;;;;;;;;;;5039026;28;20056;-74
2023/04/24 09:10:50;;;;;;;0.30;0.30;;;;;;;;;;5043775;28;21085;-74
2023/04/24 09:13:16;;;;;;;0.43;0.43;;;;;;;;;;5042345;28;20041;-75
2023/04/24 09:15:42;;;;;;;0.20;0.20;;;;;;;;;;5038640;28;20084;-75
2023/04/24 09:18:07;;;;;;;0.30;0.30;;;;;;;;;;5041811;28;20077;-74
2023/04/24 09:20:35;;;;;;;0.50;0.50;;;;;;;;;;5043021;28;20456;-73
2023/04/24 09:23:00;;;;;;;1.23;0.60;;;;;;;;;;5041649;28;20039;-74
2023/04/24 09:25:33;;;;;;;1.75;0.82;;;;;;;;;;5041912;28;20041;-74
2023/04/24 09:28:03;;;;;;;0.40;0.40;;;;;;;;;;5040877;28;20045;-74
2023/04/24 09:30:29;;;;;;;0.55;0.45;;;;;;;;;;5042469;28;20394;-74
2023/04/24 09:33:14;;;;;;;1.38;1.08;;;;;;;;;;5042057;28;20048;-74
2023/04/24 09:35:51;;;;;;;1.40;0.80;;;;;;;;;;5040950;28;20064;-75
2023/04/24 09:38:17;;;;;;;0.70;0.70;;;;;;;;;;5042146;28;20106;-74
2023/04/24 09:40:42;;;;;;;1.92;0.60;;;;;;;;;;5040984;28;20524;-73
2023/04/24 09:43:11;;;;;;;0.80;0.80;;;;;;;;;;5040176;28;20044;-73
2023/04/24 09:45:38;;;;;;;0.98;0.93;;;;;;;;;;5040065;28;20045;-73
2023/04/24 09:48:06;;;;;;;0.90;0.60;;;;;;;;;;5041915;28;20041;-74
2023/04/24 09:50:32;;;;;;;5.68;0.80;;;;;;;;;;5041988;28;20075;-74
2023/04/24 09:53:01;;;;;;;1.30;0.70;;;;;;;;;;5040363;28;20053;-74
2023/04/24 09:55:27;;;;;;;0.50;0.50;;;;;;;;;;5040356;28;21769;-75
2023/04/24 09:57:55;;;;;;;0.55;0.55;;;;;;;;;;5041841;28;20052;-74
2023/04/24 10:00:25;;;;;;;0.73;0.60;;;;;;;;;;5041598;28;20079;-74
2023/04/24 10:02:59;;;;;;;0.57;0.57;;;;;;;;;;5040333;28;20135;-73
2023/04/24 10:05:32;;;;;;;0.40;0.40;;;;;;;;;;5039647;28;20041;-73
2023/04/24 10:08:06;;;;;;;0.80;0.57;;;;;;;;;;5039342;28;20048;-72
2023/04/24 10:10:34;;;;;;;0.70;0.70;;;;;;;;;;5040373;28;21079;-74
2023/04/24 10:13:00;;;;;;;0.95;0.68;;;;;;;;;;5041297;28;20041;-73
2023/04/24 10:15:26;;;;;;;0.57;0.57;;;;;;;;;;5040421;28;20048;-74
2023/04/24 10:17:52;;;;;;;1.35;0.60;;;;;;;;;;5038528;28;20045;-73
2023/04/24 10:20:21;;;;;;;0.50;0.50;;;;;;;;;;5041723;28;20050;-74
2023/04/24 10:22:54;;;;;;;0.80;0.80;;;;;;;;;;5041326;28;20114;-73
2023/04/24 10:25:21;;;;;;;1.15;0.73;;;;;;;;;;5040736;28;20184;-73
2023/04/24 10:27:48;;;;;;;1.25;0.70;;;;;;;;;;5040553;28;20151;-71
2023/04/24 10:30:14;;;;;;;4.78;1.13;;;;;;;;;;5040254;28;20036;-72
2023/04/24 10:32:39;;;;;;;1.13;0.80;;;;;;;;;;5040915;28;20056;-73
2023/04/24 10:35:09;;;;;;;0.70;0.70;;;;;;;;;;5041221;28;20045;-74
2023/04/24 10:37:59;;;;;;;0.95;0.70;;;;;;;;;;5039038;28;20156;-72
2023/04/24 10:40:30;;;;;;;0.60;0.55;;;;;;;;;;5038970;28;20602;-73
2023/04/24 10:42:56;;;;;;;0.88;0.63;;;;;;;;;;5040799;28;20056;-74
2023/04/24 10:45:23;;;;;;;0.73;0.52;;;;;;;;;;5040652;28;20044;-73
2023/04/24 10:48:02;;;;;;;0.82;0.52;;;;;;;;;;5020061;28;20099;-72
2023/04/24 10:50:41;;;;;;;0.45;0.45;;;;;;;;;;5018459;28;20045;-72
2023/04/24 10:53:11;;;;;;;1.45;0.88;;;;;;;;;;5017741;28;20526;-72
2023/04/24 10:55:49;;;;;;;1.00;0.90;;;;;;;;;;5018120;28;20046;-73
2023/04/24 10:58:16;;;;;;;1.90;0.68;;;;;;;;;;5020967;28;20075;-73
2023/04/24 11:00:44;;;;;;;0.60;0.60;;;;;;;;;;5020621;28;20046;-72
2023/04/24 11:03:29;;;;;;;1.15;0.70;;;;;;;;;;5019844;28;20035;-72
2023/04/24 11:05:57;;;;;;;0.73;0.60;;;;;;;;;;5017595;28;20088;-72
2023/04/24 11:08:26;;;;;;;1.20;0.80;;;;;;;;;;5019683;28;20132;-72
2023/04/24 11:11:12;;;;;;;2.80;0.77;;;;;;;;;;5020592;28;20064;-74
2023/04/24 11:13:53;;;;;;;0.70;0.70;;;;;;;;;;5017682;28;20136;-73
2023/04/24 11:16:30;;;;;;;2.85;0.80;;;;;;;;;;5020388;28;20137;-71
2023/04/24 11:19:04;;;;;;;0.82;0.80;;;;;;;;;;5018750;28;20160;-72
2023/04/24 11:21:48;;;;;;;0.80;0.80;;;;;;;;;;5019727;28;20123;-72
2023/04/24 11:24:46;;;;;;;0.85;0.77;;;;;;;;;;5018965;28;20048;-72
2023/04/24 11:27:19;;;;;;;0.63;0.63;;;;;;;;;;5006053;28;20091;-71
2023/04/24 11:29:57;;;;;;;3.40;0.63;;;;;;;;;;5022293;28;20044;-71
2023/04/24 11:32:33;;;;;;;0.80;0.70;;;;;;;;;;5025547;28;20042;-71
2023/04/24 11:35:01;;;;;;;1.30;0.68;;;;;;;;;;5043754;28;20045;-72
2023/04/24 11:37:34;;;;;;;0.85;0.63;;;;;;;;;;5037916;28;20063;-73
2023/04/24 11:39:59;;;;;;;0.82;0.70;;;;;;;;;;5030998;28;20445;-72
2023/04/24 11:42:25;;;;;;;0.60;0.50;;;;;;;;;;5037251;28;20041;-72
2023/04/24 11:44:57;;;;;;;0.70;0.70;;;;;;;;;;5024364;28;20052;-73
2023/04/24 11:47:30;;;;;;;0.70;0.70;;;;;;;;;;5014310;28;20045;-72
2023/04/24 11:49:57;;;;;;;0.40;0.40;;;;;;;;;;5032076;28;20409;-72
2023/04/24 11:52:23;;;;;;;0.90;0.70;;;;;;;;;;5017170;28;20035;-71
2023/04/24 11:54:51;;;;;;;0.70;0.70;;;;;;;;;;5017850;28;20057;-71
2023/04/24 11:57:20;;;;;;;1.23;0.80;;;;;;;;;;5019534;28;20037;-71
2023/04/24 11:59:46;;;;;;;1.95;1.05;;;;;;;;;;5019320;28;20038;-73
2023/04/24 12:02:25;;;;;;;1.17;0.85;;;;;;;;;;5019511;28;20192;-71
2023/04/24 12:04:52;;;;;;;3.10;0.75;;;;;;;;;;5017403;28;20441;-71
2023/04/24 12:07:17;;;;;;;0.60;0.60;;;;;;;;;;5019402;28;20103;-73
2023/04/24 12:10:05;;;;;;;1.55;0.80;;;;;;;;;;5018700;28;20049;-72
2023/04/24 12:12:30;;;;;;;0.98;0.80;;;;;;;;;;5019637;28;20080;-72
2023/04/24 12:14:57;;;;;;;1.38;1.20;;;;;;;;;;5019605;28;20061;-73
2023/04/24 12:17:30;;;;;;;2.72;0.80;;;;;;;;;;5019695;28;20045;-73
2023/04/24 12:20:04;;;;;;;0.75;0.75;;;;;;;;;;5030807;28;20136;-73
2023/04/24 12:22:53;;;;;;;1.02;1.02;;;;;;;;;;5017543;28;20042;-73
2023/04/24 12:25:19;;;;;;;2.38;0.95;;;;;;;;;;5016166;28;20893;-74
2023/04/24 12:27:46;;;;;;;1.17;1.00;;;;;;;;;;5022092;28;20048;-72
2023/04/24 12:30:14;;;;;;;1.05;0.98;;;;;;;;;;5038316;28;20048;-73
2023/04/24 12:32:47;;;;;;;0.82;0.82;;;;;;;;;;5021733;28;20056;-72
2023/04/24 12:35:13;;;;;;;2.15;0.90;;;;;;;;;;5011908;28;20038;-74
2023/04/24 12:37:39;;;;;;;1.33;0.90;;;;;;;;;;5008499;28;20529;-73
2023/04/24 12:40:12;;;;;;;0.63;0.63;;;;;;;;;;5006177;28;20053;-75
2023/04/24 12:42:46;;;;;;;1.10;1.08;;;;;;;;;;5023445;28;20124;-72
2023/04/24 12:45:12;;;;;;;1.00;0.90;;;;;;;;;;5036124;28;20041;-73
2023/04/24 12:47:39;;;;;;;3.35;1.30;;;;;;;;;;5035852;28;20049;-73
2023/04/24 12:50:05;;;;;;;4.43;1.33;;;;;;;;;;5037497;28;20036;-73
2023/04/24 12:52:31;;;;;;;0.77;0.77;;;;;;;;;;5036465;28;20072;-73
2023/04/24 12:55:00;;;;;;;1.50;1.00;;;;;;;;;;5039449;28;20072;-72
2023/04/24 12:57:28;;;;;;;1.48;0.90;;;;;;;;;;5040650;28;20041;-73
2023/04/24 12:59:56;;;;;;;1.08;0.88;;;;;;;;;;5039367;28;20045;-73
2023/04/24 13:02:22;;;;;;;2.60;0.93;;;;;;;;;;5038161;28;20045;-74
2023/04/24 13:04:48;;;;;;;1.25;0.77;;;;;;;;;;5040766;28;20446;-75
2023/04/24 13:07:14;;;;;;;1.50;0.80;;;;;;;;;;5039335;28;20079;-74
2023/04/24 13:09:40;;;;;;;1.05;0.80;;;;;;;;;;5039800;28;20049;-74
2023/04/24 13:12:07;;;;;;;2.45;1.10;;;;;;;;;;5039609;28;20053;-73
2023/04/24 13:18:19;;;;;;;0.70;0.70;;;;;;;;;;5047656;28;20722;-73
2023/04/24 13:20:47;;;;;;;0.98;0.98;;;;;;;;;;5042471;28;21226;-74
2023/04/24 13:23:12;;;;;;;0.82;0.82;;;;;;;;;;5042187;28;20053;-73
2023/04/24 13:25:38;;;;;;;0.88;0.88;;;;;;;;;;5039764;28;20079;-74
2023/04/24 13:28:04;;;;;;;1.30;1.20;;;;;;;;;;5042147;28;20037;-74
2023/04/24 13:30:30;;;;;;;0.80;0.80;;;;;;;;;;5042440;28;20102;-74
2023/04/24 13:32:56;;;;;;;1.05;0.90;;;;;;;;;;5042271;28;20057;-73
2023/04/24 13:35:21;;;;;;;1.92;1.30;;;;;;;;;;5042154;28;20043;-73
2023/04/24 13:37:46;;;;;;;1.00;0.90;;;;;;;;;;5041552;28;20464;-72
2023/04/24 13:40:12;;;;;;;1.35;0.90;;;;;;;;;;5042706;28;20072;-73
2023/04/24 13:42:37;;;;;;;1.08;1.08;;;;;;;;;;5042072;28;20045;-74
2023/04/24 13:45:03;;;;;;;2.05;0.80;;;;;;;;;;5042394;28;20452;-74
2023/04/24 13:47:29;;;;;;;2.80;1.00;;;;;;;;;;5040721;28;20048;-73
2023/04/24 13:49:54;;;;;;;0.88;0.88;;;;;;;;;;5041831;28;20137;-74
2023/04/24 13:52:20;;;;;;;3.22;1.02;;;;;;;;;;5041006;28;20117;-75
2023/04/24 13:54:45;;;;;;;0.57;0.57;;;;;;;;;;5040833;28;20067;-74
2023/04/24 13:57:10;;;;;;;1.83;0.93;;;;;;;;;;5041616;28;20052;-74
2023/04/24 13:59:36;;;;;;;1.95;0.98;;;;;;;;;;5041435;28;20052;-74
2023/04/24 14:02:02;;;;;;;1.17;1.00;;;;;;;;;;5039850;28;20062;-74
2023/04/24 14:04:27;;;;;;;1.20;1.10;;;;;;;;;;5042531;28;20397;-74
2023/04/24 14:06:53;;;;;;;1.23;1.10;;;;;;;;;;5042755;28;20049;-74
2023/04/24 14:09:18;;;;;;;1.45;0.93;;;;;;;;;;5042352;28;20041;-74
2023/04/24 14:11:43;;;;;;;2.00;0.95;;;;;;;;;;5041377;28;20053;-73
2023/04/24 14:14:09;;;;;;;1.40;1.23;;;;;;;;;;5042387;28;20041;-74
2023/04/24 14:16:34;;;;;;;1.10;0.98;;;;;;;;;;5041703;28;20055;-74
2023/04/24 14:19:00;;;;;;;2.13;1.40;;;;;;;;;;5041259;28;20379;-75
2023/04/24 14:21:25;;;;;;;1.20;1.02;;;;;;;;;;5038844;28;20490;-74
2023/04/24 14:23:51;;;;;;;1.48;1.15;;;;;;;;;;5038845;28;20068;-73
2023/04/24 14:26:16;;;;;;;0.95;0.95;;;;;;;;;;5040888;28;20127;-72
2023/04/24 14:28:41;;;;;;;1.83;1.13;;;;;;;;;;5041863;28;20573;-75
2023/04/24 14:31:07;;;;;;;0.93;0.90;;;;;;;;;;5040044;28;20044;-75
2023/04/24 14:33:33;;;;;;;1.38;1.27;;;;;;;;;;5042659;28;20072;-75
2023/04/24 14:35:58;;;;;;;1.98;1.05;;;;;;;;;;5040812;28;20128;-75
2023/04/24 14:38:24;;;;;;;3.90;1.30;;;;;;;;;;5040321;28;20106;-72
2023/04/24 14:40:49;;;;;;;1.35;1.25;;;;;;;;;;5041311;28;20493;-74
2023/04/24 14:43:15;;;;;;;2.05;1.05;;;;;;;;;;5039347;28;20044;-73
2023/04/24 14:45:41;;;;;;;1.33;1.00;;;;;;;;;;5040405;28;20060;-73
2023/04/24 14:48:07;;;;;;;2.45;1.17;;;;;;;;;;5041217;28;20587;-72
2023/04/24 14:50:33;;;;;;;1.05;1.05;;;;;;;;;;5037188;28;20041;-71